Terminal Aerodrome Forecast
Issued by NWS

Home | Current Version | Previous Version | Text Only | Print | Product List | Glossary Off
Versions: 1 2 3 4 5 6 7 8 9 10 11 12 13 14 15 16

000
FTUS43 KICT 272322
TAFRSL
TAF
KRSL 272322Z 2800/2824 11015G22KT P6SM VCSH OVC050
      TEMPO 2800/2801 6SM SHRA OVC030
     FM280100 11014G20KT P6SM VCTS BKN025 OVC050CB
      TEMPO 2801/2805 5SM TSRA
     FM280800 11012KT P6SM VCSH OVC010
     FM281000 12010KT 4SM BR OVC006
     FM281200 VRB04KT 2SM BR OVC004
     FM281500 VRB04KT P6SM BKN016
     FM281900 36007KT P6SM SCT025
     FM282100 02011KT P6SM OVC030=

USA.gov is the U.S. government's official web portal to all federal, state and local government web resources and services.